sensor_id;sensor_type;location;lat;lon;timestamp;pressure;altitude;pressure_sealevel;temperature;humidity
39449;BME280;25151;45.566;9.382;2023-04-19T00:02:15;99862.78;;;20.12;58.03
39449;BME280;25151;45.566;9.382;2023-04-19T00:05:18;99863.56;;;20.12;58.33
39449;BME280;25151;45.566;9.382;2023-04-19T00:08:21;99862.00;;;20.11;58.32
39449;BME280;25151;45.566;9.382;2023-04-19T00:11:23;99852.34;;;20.12;58.29
39449;BME280;25151;45.566;9.382;2023-04-19T00:14:24;99850.81;;;20.11;58.28
39449;BME280;25151;45.566;9.382;2023-04-19T00:17:25;99851.56;;;20.12;58.12
39449;BME280;25151;45.566;9.382;2023-04-19T00:20:26;99853.25;;;20.09;58.24
39449;BME280;25151;45.566;9.382;2023-04-19T00:23:27;99859.63;;;20.10;58.30
39449;BME280;25151;45.566;9.382;2023-04-19T00:26:28;99855.25;;;20.09;58.38
39449;BME280;25151;45.566;9.382;2023-04-19T00:29:29;99855.25;;;20.09;58.27
39449;BME280;25151;45.566;9.382;2023-04-19T00:32:30;99856.50;;;20.08;58.31
39449;BME280;25151;45.566;9.382;2023-04-19T00:35:33;99852.88;;;20.07;58.32
39449;BME280;25151;45.566;9.382;2023-04-19T00:38:33;99851.69;;;20.08;58.17
39449;BME280;25151;45.566;9.382;2023-04-19T00:41:34;99851.31;;;20.06;58.25
39449;BME280;25151;45.566;9.382;2023-04-19T00:44:35;99843.72;;;20.07;58.18
39449;BME280;25151;45.566;9.382;2023-04-19T00:47:37;99846.19;;;20.05;58.09
39449;BME280;25151;45.566;9.382;2023-04-19T00:50:38;99841.38;;;20.05;58.32
39449;BME280;25151;45.566;9.382;2023-04-19T00:53:39;99855.38;;;20.05;58.09
39449;BME280;25151;45.566;9.382;2023-04-19T00:56:40;99840.59;;;20.05;58.32
39449;BME280;25151;45.566;9.382;2023-04-19T00:59:41;99839.81;;;20.04;58.11
39449;BME280;25151;45.566;9.382;2023-04-19T01:02:42;99839.03;;;20.04;58.07
39449;BME280;25151;45.566;9.382;2023-04-19T01:05:43;99839.03;;;20.04;58.24
39449;BME280;25151;45.566;9.382;2023-04-19T01:08:44;99842.25;;;20.02;58.28
39449;BME280;25151;45.566;9.382;2023-04-19T01:11:44;99841.47;;;20.02;58.38
39449;BME280;25151;45.566;9.382;2023-04-19T01:14:46;99837.88;;;20.01;58.30
39449;BME280;25151;45.566;9.382;2023-04-19T01:17:46;99829.50;;;20.01;58.26
39449;BME280;25151;45.566;9.382;2023-04-19T01:20:48;99833.53;;;20.00;58.13
39449;BME280;25151;45.566;9.382;2023-04-19T01:23:49;99841.16;;;20.00;58.01
39449;BME280;25151;45.566;9.382;2023-04-19T01:26:50;99829.13;;;19.99;58.17
39449;BME280;25151;45.566;9.382;2023-04-19T01:29:53;99830.38;;;19.98;58.38
39449;BME280;25151;45.566;9.382;2023-04-19T01:32:56;99824.78;;;19.98;58.37
39449;BME280;25151;45.566;9.382;2023-04-19T01:35:56;99824.78;;;19.98;58.37
39449;BME280;25151;45.566;9.382;2023-04-19T01:38:57;99818.84;;;19.96;58.16
39449;BME280;25151;45.566;9.382;2023-04-19T01:41:58;99820.41;;;19.97;58.10
39449;BME280;25151;45.566;9.382;2023-04-19T01:44:59;99817.63;;;19.97;58.17
39449;BME280;25151;45.566;9.382;2023-04-19T01:48:01;99817.63;;;19.97;58.36
39449;BME280;25151;45.566;9.382;2023-04-19T01:51:03;99812.03;;;19.97;58.39
39449;BME280;25151;45.566;9.382;2023-04-19T01:54:06;99819.63;;;19.97;58.19
39449;BME280;25151;45.566;9.382;2023-04-19T01:57:07;99810.47;;;19.96;58.31
39449;BME280;25151;45.566;9.382;2023-04-19T02:00:09;99813.25;;;19.96;58.26
39449;BME280;25151;45.566;9.382;2023-04-19T02:03:11;99810.47;;;19.96;58.39
39449;BME280;25151;45.566;9.382;2023-04-19T02:06:12;99810.88;;;19.95;58.18
39449;BME280;25151;45.566;9.382;2023-04-19T02:09:14;99812.91;;;19.94;58.31
39449;BME280;25151;45.566;9.382;2023-04-19T02:12:15;99807.31;;;19.94;58.05
39449;BME280;25151;45.566;9.382;2023-04-19T02:15:16;99809.78;;;19.92;58.21
39449;BME280;25151;45.566;9.382;2023-04-19T02:18:17;99802.94;;;19.93;58.15
39449;BME280;25151;45.566;9.382;2023-04-19T02:21:18;99807.31;;;19.94;58.32
39449;BME280;25151;45.566;9.382;2023-04-19T02:24:19;99799.38;;;19.93;58.07
39449;BME280;25151;45.566;9.382;2023-04-19T02:27:22;99804.19;;;19.92;58.03
39449;BME280;25151;45.566;9.382;2023-04-19T02:30:23;99800.16;;;19.93;58.18
39449;BME280;25151;45.566;9.382;2023-04-19T02:33:25;99798.59;;;19.92;58.00
39449;BME280;25151;45.566;9.382;2023-04-19T02:36:26;99798.59;;;19.92;58.15
39449;BME280;25151;45.566;9.382;2023-04-19T02:39:27;99791.41;;;19.91;58.30
39449;BME280;25151;45.566;9.382;2023-04-19T02:42:27;99795.44;;;19.90;58.23
39449;BME280;25151;45.566;9.382;2023-04-19T02:45:28;99785.47;;;19.89;58.23
39449;BME280;25151;45.566;9.382;2023-04-19T02:48:29;99785.47;;;19.89;57.88
39449;BME280;25151;45.566;9.382;2023-04-19T02:51:30;99784.25;;;19.90;58.22
39449;BME280;25151;45.566;9.382;2023-04-19T02:54:32;99785.47;;;19.89;58.04
39449;BME280;25151;45.566;9.382;2023-04-19T02:57:33;99784.25;;;19.90;57.99
39449;BME280;25151;45.566;9.382;2023-04-19T03:00:34;99782.69;;;19.89;58.15
39449;BME280;25151;45.566;9.382;2023-04-19T03:03:35;99782.22;;;19.90;57.99
39449;BME280;25151;45.566;9.382;2023-04-19T03:06:39;99776.31;;;19.88;58.25
39449;BME280;25151;45.566;9.382;2023-04-19T03:09:41;99781.13;;;19.88;58.09
39449;BME280;25151;45.566;9.382;2023-04-19T03:12:42;99778.75;;;19.86;57.95
39449;BME280;25151;45.566;9.382;2023-04-19T03:15:43;99773.94;;;19.87;57.95
39449;BME280;25151;45.566;9.382;2023-04-19T03:18:43;99771.13;;;19.87;58.11
39449;BME280;25151;45.566;9.382;2023-04-19T03:21:44;99781.13;;;19.88;57.92
39449;BME280;25151;45.566;9.382;2023-04-19T03:24:46;99777.97;;;19.86;58.22
39449;BME280;25151;45.566;9.382;2023-04-19T03:27:47;99778.75;;;19.86;57.99
39449;BME280;25151;45.566;9.382;2023-04-19T03:30:49;99775.63;;;19.84;57.81
39449;BME280;25151;45.566;9.382;2023-04-19T03:33:50;99770.81;;;19.85;57.98
39449;BME280;25151;45.566;9.382;2023-04-19T03:36:52;99766.44;;;19.84;58.07
39449;BME280;25151;45.566;9.382;2023-04-19T03:39:55;99765.22;;;19.85;58.11
39449;BME280;25151;45.566;9.382;2023-04-19T03:42:56;99768.00;;;19.85;58.16
39449;BME280;25151;45.566;9.382;2023-04-19T03:45:57;99767.66;;;19.83;57.94
39449;BME280;25151;45.566;9.382;2023-04-19T03:48:59;99765.66;;;19.83;58.10
39449;BME280;25151;45.566;9.382;2023-04-19T03:52:00;99763.31;;;19.82;57.94
39449;BME280;25151;45.566;9.382;2023-04-19T03:55:03;99762.06;;;19.83;58.06
39449;BME280;25151;45.566;9.382;2023-04-19T03:58:04;99758.38;;;19.86;58.12
39449;BME280;25151;45.566;9.382;2023-04-19T04:01:06;99759.25;;;19.83;57.99
39449;BME280;25151;45.566;9.382;2023-04-19T04:04:09;99754.91;;;19.82;58.23
39449;BME280;25151;45.566;9.382;2023-04-19T04:07:12;99760.03;;;19.83;58.01
39449;BME280;25151;45.566;9.382;2023-04-19T04:10:13;99755.38;;;19.80;57.96
39449;BME280;25151;45.566;9.382;2023-04-19T04:13:14;99756.16;;;19.81;57.86
39449;BME280;25151;45.566;9.382;2023-04-19T04:16:16;99762.53;;;19.81;58.14
39449;BME280;25151;45.566;9.382;2023-04-19T04:19:19;99754.91;;;19.82;58.01
39449;BME280;25151;45.566;9.382;2023-04-19T04:22:21;99764.53;;;19.81;58.09
39449;BME280;25151;45.566;9.382;2023-04-19T04:25:23;99760.19;;;19.80;57.99
39449;BME280;25151;45.566;9.382;2023-04-19T04:28:26;99757.38;;;19.80;57.98
39449;BME280;25151;45.566;9.382;2023-04-19T04:31:28;99764.19;;;19.79;58.05
39449;BME280;25151;45.566;9.382;2023-04-19T04:34:29;99757.81;;;19.78;58.10
39449;BME280;25151;45.566;9.382;2023-04-19T04:37:35;99762.97;;;19.80;58.09
39449;BME280;25151;45.566;9.382;2023-04-19T04:40:38;99766.97;;;19.79;57.98
39449;BME280;25151;45.566;9.382;2023-04-19T04:43:39;99771.03;;;19.78;58.08
39449;BME280;25151;45.566;9.382;2023-04-19T04:46:41;99774.59;;;19.78;57.93
39449;BME280;25151;45.566;9.382;2023-04-19T04:49:42;99766.66;;;19.77;57.96
39449;BME280;25151;45.566;9.382;2023-04-19T04:52:43;99770.25;;;19.77;58.14
39449;BME280;25151;45.566;9.382;2023-04-19T04:55:45;99769.47;;;19.77;58.07
39449;BME280;25151;45.566;9.382;2023-04-19T04:58:46;99780.66;;;19.77;58.01
39449;BME280;25151;45.566;9.382;2023-04-19T05:01:47;99772.25;;;19.77;58.06
39449;BME280;25151;45.566;9.382;2023-04-19T05:04:49;99770.66;;;19.76;57.99
39449;BME280;25151;45.566;9.382;2023-04-19T05:07:50;99772.25;;;19.77;58.02
39449;BME280;25151;45.566;9.382;2023-04-19T05:10:52;99775.06;;;19.77;57.86
39449;BME280;25151;45.566;9.382;2023-04-19T05:13:55;99766.66;;;19.77;57.95
39449;BME280;25151;45.566;9.382;2023-04-19T05:16:58;99770.66;;;19.76;57.91
39449;BME280;25151;45.566;9.382;2023-04-19T05:19:59;99767.88;;;19.76;58.04
39449;BME280;25151;45.566;9.382;2023-04-19T05:23:02;99765.53;;;19.74;57.69
39449;BME280;25151;45.566;9.382;2023-04-19T05:26:03;99771.56;;;19.73;57.97
39449;BME280;25151;45.566;9.382;2023-04-19T05:29:05;99768.31;;;19.74;57.83
39449;BME280;25151;45.566;9.382;2023-04-19T05:32:07;99767.53;;;19.74;57.87
39449;BME280;25151;45.566;9.382;2023-04-19T05:35:12;99764.63;;;19.77;57.83
39449;BME280;25151;45.566;9.382;2023-04-19T05:38:17;99766.97;;;19.79;57.97
39449;BME280;25151;45.566;9.382;2023-04-19T05:41:21;99771.38;;;19.80;57.79
39449;BME280;25151;45.566;9.382;2023-04-19T05:44:23;99768.13;;;19.81;58.06
39449;BME280;25151;45.566;9.382;2023-04-19T05:47:24;99760.50;;;19.82;58.02
39449;BME280;25151;45.566;9.382;2023-04-19T05:50:24;99768.91;;;19.82;58.02
39449;BME280;25151;45.566;9.382;2023-04-19T05:53:27;99771.69;;;19.82;57.82
39449;BME280;25151;45.566;9.382;2023-04-19T05:56:28;99758.94;;;19.81;58.32
39449;BME280;25151;45.566;9.382;2023-04-19T05:59:29;99762.06;;;19.83;57.84
39449;BME280;25151;45.566;9.382;2023-04-19T06:02:30;99758.47;;;19.82;58.08
39449;BME280;25151;45.566;9.382;2023-04-19T06:05:32;99760.03;;;19.83;57.91
39449;BME280;25151;45.566;9.382;2023-04-19T06:08:36;99754.44;;;19.83;57.88
39449;BME280;25151;45.566;9.382;2023-04-19T06:11:38;99764.44;;;19.84;57.92
39449;BME280;25151;45.566;9.382;2023-04-19T06:14:42;99758.06;;;19.84;58.04
39449;BME280;25151;45.566;9.382;2023-04-19T06:17:45;99756.81;;;19.85;57.87
39449;BME280;25151;45.566;9.382;2023-04-19T06:20:47;99756.38;;;19.86;58.12
39449;BME280;25151;45.566;9.382;2023-04-19T06:23:48;99765.53;;;19.87;58.16
39449;BME280;25151;45.566;9.382;2023-04-19T06:26:49;99762.75;;;19.87;58.06
39449;BME280;25151;45.566;9.382;2023-04-19T06:29:50;99762.75;;;19.87;58.10
39449;BME280;25151;45.566;9.382;2023-04-19T06:32:52;99761.53;;;19.88;58.11
39449;BME280;25151;45.566;9.382;2023-04-19T06:35:55;99753.13;;;19.88;58.21
39449;BME280;25151;45.566;9.382;2023-04-19T06:38:57;99757.50;;;19.89;58.27
39449;BME280;25151;45.566;9.382;2023-04-19T06:41:58;99757.03;;;19.90;58.37
39449;BME280;25151;45.566;9.382;2023-04-19T06:44:59;99759.50;;;19.88;58.15
39449;BME280;25151;45.566;9.382;2023-04-19T06:48:00;99752.31;;;19.87;58.35
39449;BME280;25151;45.566;9.382;2023-04-19T06:51:01;99754.34;;;19.87;58.26
39449;BME280;25151;45.566;9.382;2023-04-19T06:54:02;99757.16;;;19.87;58.34
39449;BME280;25151;45.566;9.382;2023-04-19T06:57:03;99747.53;;;19.88;58.40
39449;BME280;25151;45.566;9.382;2023-04-19T07:00:04;99758.72;;;19.88;58.45
39449;BME280;25151;45.566;9.382;2023-04-19T07:03:06;99746.72;;;19.87;58.15
39449;BME280;25151;45.566;9.382;2023-04-19T07:06:07;99750.00;;;19.86;58.32
39449;BME280;25151;45.566;9.382;2023-04-19T07:09:08;99750.00;;;19.86;58.30
39449;BME280;25151;45.566;9.382;2023-04-19T07:12:09;99750.78;;;19.86;58.27
39449;BME280;25151;45.566;9.382;2023-04-19T07:15:11;99745.94;;;19.87;58.21
39449;BME280;25151;45.566;9.382;2023-04-19T07:18:12;99751.53;;;19.87;58.00
39449;BME280;25151;45.566;9.382;2023-04-19T07:21:15;99745.94;;;19.87;58.16
39449;BME280;25151;45.566;9.382;2023-04-19T07:24:17;99743.94;;;19.87;58.03
39449;BME280;25151;45.566;9.382;2023-04-19T07:27:18;99751.53;;;19.87;58.05
39449;BME280;25151;45.566;9.382;2023-04-19T07:30:19;99745.94;;;19.87;57.97
39449;BME280;25151;45.566;9.382;2023-04-19T07:33:22;99749.53;;;19.87;58.11
39449;BME280;25151;45.566;9.382;2023-04-19T07:36:25;99743.16;;;19.87;58.19
39449;BME280;25151;45.566;9.382;2023-04-19T07:39:27;99735.53;;;19.87;58.11
39449;BME280;25151;45.566;9.382;2023-04-19T07:42:30;99740.34;;;19.87;58.13
39449;BME280;25151;45.566;9.382;2023-04-19T07:45:32;99737.56;;;19.87;58.19
39449;BME280;25151;45.566;9.382;2023-04-19T07:48:34;99731.97;;;19.87;57.93
39449;BME280;25151;45.566;9.382;2023-04-19T07:51:35;99735.53;;;19.87;58.08
39449;BME280;25151;45.566;9.382;2023-04-19T07:54:36;99734.75;;;19.87;57.88
39449;BME280;25151;45.566;9.382;2023-04-19T07:57:38;99729.94;;;19.87;58.11
39449;BME280;25151;45.566;9.382;2023-04-19T08:00:39;99731.53;;;19.88;57.75
39449;BME280;25151;45.566;9.382;2023-04-19T08:03:40;99733.56;;;19.88;57.94
39449;BME280;25151;45.566;9.382;2023-04-19T08:06:42;99726.72;;;19.89;58.00
39449;BME280;25151;45.566;9.382;2023-04-19T08:09:43;99732.31;;;19.89;57.75
39449;BME280;25151;45.566;9.382;2023-04-19T08:12:44;99728.28;;;19.90;58.00
39449;BME280;25151;45.566;9.382;2023-04-19T08:15:46;99721.91;;;19.89;57.87
39449;BME280;25151;45.566;9.382;2023-04-19T08:18:47;99733.88;;;19.90;57.82
39449;BME280;25151;45.566;9.382;2023-04-19T08:21:51;99722.69;;;19.90;57.89
39449;BME280;25151;45.566;9.382;2023-04-19T08:24:52;99717.09;;;19.90;57.85
39449;BME280;25151;45.566;9.382;2023-04-19T08:27:54;99721.44;;;19.91;57.76
39449;BME280;25151;45.566;9.382;2023-04-19T08:30:56;99705.88;;;19.90;57.90
39449;BME280;25151;45.566;9.382;2023-04-19T08:33:57;99703.09;;;19.90;57.57
39449;BME280;25151;45.566;9.382;2023-04-19T08:36:59;99709.03;;;19.92;57.64
39449;BME280;25151;45.566;9.382;2023-04-19T08:40:02;99708.22;;;19.92;57.69
39449;BME280;25151;45.566;9.382;2023-04-19T08:43:07;99700.66;;;19.92;57.70
39449;BME280;25151;45.566;9.382;2023-04-19T08:46:10;99697.84;;;19.92;57.69
39449;BME280;25151;45.566;9.382;2023-04-19T08:49:12;99705.00;;;19.93;57.69
39449;BME280;25151;45.566;9.382;2023-04-19T08:52:15;99703.44;;;19.92;57.83
39449;BME280;25151;45.566;9.382;2023-04-19T08:55:18;99702.19;;;19.93;57.47
39449;BME280;25151;45.566;9.382;2023-04-19T08:58:18;99697.38;;;19.94;57.62
39449;BME280;25151;45.566;9.382;2023-04-19T09:01:19;99689.78;;;19.94;57.74
39449;BME280;25151;45.566;9.382;2023-04-19T09:04:31;99697.72;;;19.96;57.46
39449;BME280;25151;45.566;9.382;2023-04-19T09:07:51;99690.13;;;19.96;57.49
39449;BME280;25151;45.566;9.382;2023-04-19T09:10:56;99690.78;;;20.00;57.24
39449;BME280;25151;45.566;9.382;2023-04-19T09:14:08;99679.13;;;20.02;57.51
39449;BME280;25151;45.566;9.382;2023-04-19T09:17:12;99674.66;;;20.04;57.69
39449;BME280;25151;45.566;9.382;2023-04-19T09:20:14;99666.25;;;20.04;57.39
39449;BME280;25151;45.566;9.382;2023-04-19T09:23:17;99664.69;;;20.03;57.51
39449;BME280;25151;45.566;9.382;2023-04-19T09:26:18;99653.47;;;20.03;57.62
39449;BME280;25151;45.566;9.382;2023-04-19T09:29:20;99658.31;;;20.03;57.50
39449;BME280;25151;45.566;9.382;2023-04-19T09:32:21;99651.91;;;20.02;57.62
39449;BME280;25151;45.566;9.382;2023-04-19T09:35:41;99652.69;;;20.03;57.46
39449;BME280;25151;45.566;9.382;2023-04-19T09:38:47;99651.91;;;20.02;57.48
39449;BME280;25151;45.566;9.382;2023-04-19T09:41:53;99643.88;;;20.04;57.48
39449;BME280;25151;45.566;9.382;2023-04-19T09:44:58;99646.31;;;20.02;57.40
39449;BME280;25151;45.566;9.382;2023-04-19T09:48:04;99633.88;;;20.03;57.47
39449;BME280;25151;45.566;9.382;2023-04-19T09:51:07;99634.25;;;20.05;57.56
39449;BME280;25151;45.566;9.382;2023-04-19T09:54:12;99615.88;;;20.04;57.22
39449;BME280;25151;45.566;9.382;2023-04-19T09:57:14;99625.84;;;20.05;57.44
39449;BME280;25151;45.566;9.382;2023-04-19T10:00:15;99618.69;;;20.04;57.19
39449;BME280;25151;45.566;9.382;2023-04-19T10:03:17;99607.81;;;20.06;57.10
39449;BME280;25151;45.566;9.382;2023-04-19T10:06:19;99614.97;;;20.07;57.19
39449;BME280;25151;45.566;9.382;2023-04-19T10:09:21;99602.56;;;20.08;56.99
39449;BME280;25151;45.566;9.382;2023-04-19T10:12:24;99598.50;;;20.09;57.30
39449;BME280;25151;45.566;9.382;2023-04-19T10:15:26;99593.69;;;20.10;56.91
39449;BME280;25151;45.566;9.382;2023-04-19T10:18:29;99599.63;;;20.12;56.89
39449;BME280;25151;45.566;9.382;2023-04-19T10:21:31;99595.59;;;20.13;56.89
39449;BME280;25151;45.566;9.382;2023-04-19T10:24:33;99596.38;;;20.13;57.02
39449;BME280;25151;45.566;9.382;2023-04-19T10:27:34;99589.53;;;20.14;56.83
39449;BME280;25151;45.566;9.382;2023-04-19T10:30:36;99582.72;;;20.16;56.92
39449;BME280;25151;45.566;9.382;2023-04-19T10:33:52;99575.09;;;20.16;57.00
39449;BME280;25151;45.566;9.382;2023-04-19T10:36:56;99576.19;;;20.19;57.06
39449;BME280;25151;45.566;9.382;2023-04-19T10:39:58;99570.16;;;20.20;57.13
39449;BME280;25151;45.566;9.382;2023-04-19T10:49:29;99547.31;;;20.22;57.25
39449;BME280;25151;45.566;9.382;2023-04-19T10:52:30;99552.91;;;20.22;57.29
39449;BME280;25151;45.566;9.382;2023-04-19T10:55:32;99546.06;;;20.23;57.36
39449;BME280;25151;45.566;9.382;2023-04-19T11:05:28;99521.22;;;20.25;57.47
39449;BME280;25151;45.566;9.382;2023-04-19T11:08:30;99518.41;;;20.25;57.40
39449;BME280;25151;45.566;9.382;2023-04-19T11:11:35;99507.97;;;20.25;57.30
39449;BME280;25151;45.566;9.382;2023-04-19T11:14:39;99496.78;;;20.25;57.06
39449;BME280;25151;45.566;9.382;2023-04-19T11:17:42;99496.78;;;20.25;57.32
39449;BME280;25151;45.566;9.382;2023-04-19T11:24:45;99485.00;;;20.30;57.45
39449;BME280;25151;45.566;9.382;2023-04-19T11:27:51;99485.78;;;20.31;57.48
39449;BME280;25151;45.566;9.382;2023-04-19T11:30:54;99476.59;;;20.30;57.33
39449;BME280;25151;45.566;9.382;2023-04-19T11:34:22;99465.41;;;20.30;57.24
39449;BME280;25151;45.566;9.382;2023-04-19T11:37:33;99460.56;;;20.31;57.26
39449;BME280;25151;45.566;9.382;2023-04-19T11:40:36;99458.13;;;20.33;57.30
39449;BME280;25151;45.566;9.382;2023-04-19T11:43:37;99456.09;;;20.33;57.25
39449;BME280;25151;45.566;9.382;2023-04-19T11:46:38;99450.81;;;20.35;57.40
39449;BME280;25151;45.566;9.382;2023-04-19T11:49:39;99442.44;;;20.35;57.53
39449;BME280;25151;45.566;9.382;2023-04-19T11:52:40;99449.13;;;20.38;57.47
39449;BME280;25151;45.566;9.382;2023-04-19T11:55:47;99433.88;;;20.39;57.15
39449;BME280;25151;45.566;9.382;2023-04-19T11:58:56;99437.13;;;20.37;57.52
39449;BME280;25151;45.566;9.382;2023-04-19T12:02:07;99421.13;;;20.38;57.19
39449;BME280;25151;45.566;9.382;2023-04-19T12:05:13;99419.56;;;20.37;57.24
39449;BME280;25151;45.566;9.382;2023-04-19T12:08:14;99413.97;;;20.37;56.90
39449;BME280;25151;45.566;9.382;2023-04-19T12:11:17;99407.09;;;20.38;57.24
39449;BME280;25151;45.566;9.382;2023-04-19T12:14:24;99401.50;;;20.38;57.18
39449;BME280;25151;45.566;9.382;2023-04-19T12:17:26;99397.16;;;20.37;57.38
39449;BME280;25151;45.566;9.382;2023-04-19T12:20:35;99394.34;;;20.37;57.37
39449;BME280;25151;45.566;9.382;2023-04-19T12:23:37;99396.69;;;20.38;57.22
39449;BME280;25151;45.566;9.382;2023-04-19T12:26:55;99389.06;;;20.39;57.12
39449;BME280;25151;45.566;9.382;2023-04-19T12:29:57;99383.47;;;20.39;57.11
39449;BME280;25151;45.566;9.382;2023-04-19T12:32:58;99378.66;;;20.39;57.23
39449;BME280;25151;45.566;9.382;2023-04-19T12:36:00;99363.84;;;20.39;57.15
39449;BME280;25151;45.566;9.382;2023-04-19T12:39:01;99367.47;;;20.39;57.05
39449;BME280;25151;45.566;9.382;2023-04-19T12:42:02;99361.88;;;20.39;57.24
39449;BME280;25151;45.566;9.382;2023-04-19T12:45:07;99357.03;;;20.40;57.27
39449;BME280;25151;45.566;9.382;2023-04-19T12:48:07;99349.84;;;20.39;57.41
39449;BME280;25151;45.566;9.382;2023-04-19T12:51:08;99357.03;;;20.40;57.38
39449;BME280;25151;45.566;9.382;2023-04-19T12:54:09;99349.41;;;20.41;57.24
39449;BME280;25151;45.566;9.382;2023-04-19T12:57:11;99337.44;;;20.40;57.21
39449;BME280;25151;45.566;9.382;2023-04-19T13:00:13;99334.63;;;20.40;57.14
39449;BME280;25151;45.566;9.382;2023-04-19T13:03:14;99334.63;;;20.40;57.12
39449;BME280;25151;45.566;9.382;2023-04-19T13:06:16;99329.03;;;20.40;57.20
39449;BME280;25151;45.566;9.382;2023-04-19T13:09:19;99317.84;;;20.40;57.28
39449;BME280;25151;45.566;9.382;2023-04-19T13:12:21;99315.03;;;20.40;56.95
39449;BME280;25151;45.566;9.382;2023-04-19T13:15:25;99306.63;;;20.40;57.10
39449;BME280;25151;45.566;9.382;2023-04-19T13:18:26;99295.44;;;20.40;57.27
39449;BME280;25151;45.566;9.382;2023-04-19T13:21:27;99299.44;;;20.39;57.22
39449;BME280;25151;45.566;9.382;2023-04-19T13:24:29;99288.25;;;20.39;57.23
39449;BME280;25151;45.566;9.382;2023-04-19T13:27:31;99285.44;;;20.39;57.10
39449;BME280;25151;45.566;9.382;2023-04-19T13:30:32;99278.31;;;20.38;57.28
39449;BME280;25151;45.566;9.382;2023-04-19T13:33:33;99271.44;;;20.39;57.15
39449;BME280;25151;45.566;9.382;2023-04-19T13:36:34;99259.47;;;20.38;57.03
39449;BME280;25151;45.566;9.382;2023-04-19T13:39:36;99264.31;;;20.38;57.16
39449;BME280;25151;45.566;9.382;2023-04-19T13:42:37;99258.69;;;20.38;57.32
39449;BME280;25151;45.566;9.382;2023-04-19T13:45:39;99252.31;;;20.37;57.18
39449;BME280;25151;45.566;9.382;2023-04-19T13:48:40;99247.50;;;20.38;57.18
39449;BME280;25151;45.566;9.382;2023-04-19T13:51:42;99236.28;;;20.38;57.24
39449;BME280;25151;45.566;9.382;2023-04-19T13:54:43;99230.69;;;20.38;57.10
39449;BME280;25151;45.566;9.382;2023-04-19T13:57:46;99226.34;;;20.37;57.15
39449;BME280;25151;45.566;9.382;2023-04-19T14:00:48;99225.09;;;20.38;57.30
39449;BME280;25151;45.566;9.382;2023-04-19T14:03:49;99217.16;;;20.36;57.19
39449;BME280;25151;45.566;9.382;2023-04-19T14:06:51;99212.34;;;20.37;57.31
39449;BME280;25151;45.566;9.382;2023-04-19T14:09:54;99196.78;;;20.36;57.35
39449;BME280;25151;45.566;9.382;2023-04-19T14:12:56;99187.63;;;20.35;57.03
39449;BME280;25151;45.566;9.382;2023-04-19T14:15:58;99187.63;;;20.35;57.19
39449;BME280;25151;45.566;9.382;2023-04-19T14:19:00;99194.00;;;20.36;57.26
39449;BME280;25151;45.566;9.382;2023-04-19T14:22:04;99175.63;;;20.35;57.31
39449;BME280;25151;45.566;9.382;2023-04-19T14:25:06;99171.59;;;20.36;57.22
39449;BME280;25151;45.566;9.382;2023-04-19T14:28:17;99167.22;;;20.35;57.22
39449;BME280;25151;45.566;9.382;2023-04-19T14:31:20;99170.00;;;20.35;57.12
39449;BME280;25151;45.566;9.382;2023-04-19T14:34:22;99158.03;;;20.34;57.17
39449;BME280;25151;45.566;9.382;2023-04-19T14:37:24;99151.66;;;20.34;57.13
39449;BME280;25151;45.566;9.382;2023-04-19T14:40:28;99145.28;;;20.33;57.18
39449;BME280;25151;45.566;9.382;2023-04-19T14:43:29;99145.28;;;20.33;57.38
39449;BME280;25151;45.566;9.382;2023-04-19T14:46:30;99138.91;;;20.33;57.42
39449;BME280;25151;45.566;9.382;2023-04-19T14:49:31;99138.13;;;20.32;57.20
39449;BME280;25151;45.566;9.382;2023-04-19T14:52:32;99136.13;;;20.33;57.24
39449;BME280;25151;45.566;9.382;2023-04-19T14:55:36;99127.72;;;20.33;57.20
39449;BME280;25151;45.566;9.382;2023-04-19T14:58:37;99131.75;;;20.32;57.28
39449;BME280;25151;45.566;9.382;2023-04-19T15:01:38;99131.75;;;20.32;57.33
39449;BME280;25151;45.566;9.382;2023-04-19T15:04:39;99126.16;;;20.32;57.38
39449;BME280;25151;45.566;9.382;2023-04-19T15:07:40;99112.16;;;20.32;57.27
39449;BME280;25151;45.566;9.382;2023-04-19T15:10:42;99114.97;;;20.32;57.17
39449;BME280;25151;45.566;9.382;2023-04-19T15:13:43;99114.97;;;20.32;57.34
39449;BME280;25151;45.566;9.382;2023-04-19T15:16:44;99109.38;;;20.32;57.25
39449;BME280;25151;45.566;9.382;2023-04-19T15:19:45;99107.78;;;20.31;57.45
39449;BME280;25151;45.566;9.382;2023-04-19T15:22:46;99106.25;;;20.30;57.15
39449;BME280;25151;45.566;9.382;2023-04-19T15:25:48;99107.78;;;20.31;57.35
39449;BME280;25151;45.566;9.382;2023-04-19T15:28:49;99102.19;;;20.31;57.10
39449;BME280;25151;45.566;9.382;2023-04-19T15:31:51;99102.19;;;20.31;57.12
39449;BME280;25151;45.566;9.382;2023-04-19T15:34:52;99109.03;;;20.30;57.38
39449;BME280;25151;45.566;9.382;2023-04-19T15:37:53;99103.44;;;20.30;57.33
39449;BME280;25151;45.566;9.382;2023-04-19T15:40:56;99100.63;;;20.30;57.11
39449;BME280;25151;45.566;9.382;2023-04-19T15:43:57;99099.88;;;20.29;57.21
39449;BME280;25151;45.566;9.382;2023-04-19T15:47:11;99102.19;;;20.31;57.33
39449;BME280;25151;45.566;9.382;2023-04-19T15:50:14;99098.94;;;20.32;57.27
39449;BME280;25151;45.566;9.382;2023-04-19T15:53:15;99102.81;;;20.35;57.13
39449;BME280;25151;45.566;9.382;2023-04-19T15:56:16;99100.34;;;20.37;57.33
39449;BME280;25151;45.566;9.382;2023-04-19T15:59:17;99096.00;;;20.36;57.46
39449;BME280;25151;45.566;9.382;2023-04-19T16:02:18;99097.22;;;20.35;57.52
39449;BME280;25151;45.566;9.382;2023-04-19T16:05:18;99098.03;;;20.35;57.68
39449;BME280;25151;45.566;9.382;2023-04-19T16:08:19;99094.88;;;20.33;57.71
39449;BME280;25151;45.566;9.382;2023-04-19T16:11:20;99095.66;;;20.34;57.78
39449;BME280;25151;45.566;9.382;2023-04-19T16:14:22;99095.22;;;20.35;57.77
39449;BME280;25151;45.566;9.382;2023-04-19T16:17:24;99095.22;;;20.35;57.62
39449;BME280;25151;45.566;9.382;2023-04-19T16:20:30;99098.78;;;20.36;57.89
39449;BME280;25151;45.566;9.382;2023-04-19T16:23:31;99093.19;;;20.36;57.85